Time;durP1;ratioP1;P1;durP2;ratioP2;P2;SDS_P1;SDS_P2;PMS_P1;PMS_P2;Temp;Humidity;BMP_temperature;BMP_pressure;BME280_temperature;BME280_humidity;BME280_pressure;Samples;Min_cycle;Max_cycle;Signal;HPM_P1;HPM_P2
2022/05/12 00:00:10;;;;;;;7.13;2.40;;;;;;;;;;5069782;28;20276;-69
2022/05/12 00:02:38;;;;;;;6.23;3.20;;;;;;;;;;5062994;28;20203;-69
2022/05/12 00:05:08;;;;;;;9.83;2.50;;;;;;;;;;5057702;28;20237;-68
2022/05/12 00:07:37;;;;;;;8.13;2.37;;;;;;;;;;5057202;28;20210;-69
2022/05/12 00:10:06;;;;;;;6.77;2.47;;;;;;;;;;5058348;28;20739;-68
2022/05/12 00:12:34;;;;;;;6.27;2.63;;;;;;;;;;5058464;28;20237;-68
2022/05/12 00:15:02;;;;;;;5.03;2.17;;;;;;;;;;5066056;28;20686;-69
2022/05/12 00:17:30;;;;;;;9.67;2.80;;;;;;;;;;5072949;28;20195;-68
2022/05/12 00:19:58;;;;;;;11.23;2.47;;;;;;;;;;5065667;28;20195;-68
2022/05/12 00:22:27;;;;;;;9.33;2.53;;;;;;;;;;5076257;28;20213;-69
2022/05/12 00:24:55;;;;;;;7.43;2.87;;;;;;;;;;5076182;28;20689;-68
2022/05/12 00:27:23;;;;;;;9.50;1.97;;;;;;;;;;5073840;28;20693;-68
2022/05/12 00:29:51;;;;;;;6.97;2.07;;;;;;;;;;5056114;28;20603;-68
2022/05/12 00:32:19;;;;;;;8.27;2.63;;;;;;;;;;5056566;28;20241;-70
2022/05/12 00:34:47;;;;;;;7.60;2.70;;;;;;;;;;5061263;28;20202;-70
2022/05/12 00:37:15;;;;;;;6.73;2.27;;;;;;;;;;5071660;28;20276;-69
2022/05/12 00:39:45;;;;;;;4.67;2.33;;;;;;;;;;5057830;28;20206;-68
2022/05/12 00:42:13;;;;;;;7.47;2.40;;;;;;;;;;5060003;28;20679;-68
2022/05/12 00:44:41;;;;;;;6.40;2.77;;;;;;;;;;5077903;28;20210;-69
2022/05/12 00:47:09;;;;;;;7.03;2.10;;;;;;;;;;5077533;28;20300;-69
2022/05/12 00:49:38;;;;;;;7.97;2.77;;;;;;;;;;5077554;28;20206;-68
2022/05/12 00:52:08;;;;;;;9.60;2.47;;;;;;;;;;5076899;28;20199;-68
2022/05/12 00:54:39;;;;;;;11.40;2.27;;;;;;;;;;5077601;28;20256;-69
2022/05/12 00:57:09;;;;;;;8.73;3.27;;;;;;;;;;5077693;28;20244;-68
2022/05/12 00:59:38;;;;;;;8.13;2.53;;;;;;;;;;5077430;28;20210;-69
2022/05/12 01:02:08;;;;;;;11.73;2.37;;;;;;;;;;5069787;28;20199;-69
2022/05/12 01:04:38;;;;;;;6.47;2.20;;;;;;;;;;5057053;28;20234;-68
2022/05/12 01:07:06;;;;;;;6.83;2.53;;;;;;;;;;5057541;28;20234;-69
2022/05/12 01:09:35;;;;;;;6.40;2.37;;;;;;;;;;5071142;28;20203;-68
2022/05/12 01:12:03;;;;;;;9.57;2.50;;;;;;;;;;5062917;28;20225;-68
2022/05/12 01:14:33;;;;;;;5.17;2.40;;;;;;;;;;5077554;28;20206;-68
2022/05/12 01:17:03;;;;;;;6.37;3.20;;;;;;;;;;5065875;28;20636;-68
2022/05/12 01:19:32;;;;;;;7.90;2.07;;;;;;;;;;5057451;28;20260;-68
2022/05/12 01:22:01;;;;;;;6.63;2.83;;;;;;;;;;5058006;28;20207;-69
2022/05/12 01:24:33;;;;;;;6.87;2.20;;;;;;;;;;5077167;28;20209;-68
2022/05/12 01:27:18;;;;;;;6.30;2.27;;;;;;;;;;5076953;28;20242;-69
2022/05/12 01:29:48;;;;;;;6.30;2.50;;;;;;;;;;5077354;28;20206;-68
2022/05/12 01:32:16;;;;;;;6.20;2.40;;;;;;;;;;5067794;28;20226;-68
2022/05/12 01:34:45;;;;;;;6.80;2.37;;;;;;;;;;5060078;28;20252;-69
2022/05/12 01:37:13;;;;;;;9.53;2.73;;;;;;;;;;5057332;28;20292;-69
2022/05/12 01:39:42;;;;;;;5.70;2.23;;;;;;;;;;5069908;28;20260;-68
2022/05/12 01:42:11;;;;;;;7.17;2.10;;;;;;;;;;5077004;28;20255;-68
2022/05/12 01:44:41;;;;;;;6.23;2.67;;;;;;;;;;5077400;28;20206;-68
2022/05/12 01:47:09;;;;;;;7.37;2.60;;;;;;;;;;5076995;28;20639;-68
2022/05/12 01:49:37;;;;;;;10.37;3.03;;;;;;;;;;5077186;28;20202;-69
2022/05/12 01:52:06;;;;;;;5.87;2.20;;;;;;;;;;5076485;28;20244;-68
2022/05/12 01:54:34;;;;;;;11.50;3.07;;;;;;;;;;5058569;28;20203;-68
2022/05/12 01:57:04;;;;;;;6.67;2.63;;;;;;;;;;5056882;28;20223;-68
2022/05/12 01:59:32;;;;;;;8.80;2.63;;;;;;;;;;5057258;28;20211;-68
2022/05/12 02:02:00;;;;;;;5.07;3.00;;;;;;;;;;5057864;28;20198;-69
2022/05/12 02:04:28;;;;;;;6.40;2.33;;;;;;;;;;5063509;28;20269;-68
2022/05/12 02:06:56;;;;;;;4.80;2.33;;;;;;;;;;5076663;28;20226;-68
2022/05/12 02:09:24;;;;;;;6.07;2.17;;;;;;;;;;5076790;28;20207;-68
2022/05/12 02:11:52;;;;;;;7.30;2.17;;;;;;;;;;5077271;28;20210;-70
2022/05/12 02:14:22;;;;;;;7.97;2.20;;;;;;;;;;5077115;28;20614;-69
2022/05/12 02:16:50;;;;;;;5.10;3.20;;;;;;;;;;5074363;28;20210;-70
2022/05/12 02:19:18;;;;;;;6.70;2.27;;;;;;;;;;5065070;28;20203;-69
2022/05/12 02:21:46;;;;;;;7.03;2.13;;;;;;;;;;5056401;28;20203;-68
2022/05/12 02:24:14;;;;;;;4.53;2.00;;;;;;;;;;5069704;28;20674;-70
2022/05/12 02:26:42;;;;;;;8.57;2.53;;;;;;;;;;5080429;28;20234;-69
2022/05/12 02:29:10;;;;;;;9.20;2.60;;;;;;;;;;5080393;28;20210;-67
2022/05/12 02:31:40;;;;;;;4.50;1.90;;;;;;;;;;5080698;28;20210;-67
2022/05/12 02:34:08;;;;;;;7.80;2.40;;;;;;;;;;5060444;28;20226;-67
2022/05/12 02:36:36;;;;;;;4.77;2.43;;;;;;;;;;5077198;28;20218;-69
2022/05/12 02:39:04;;;;;;;4.93;1.73;;;;;;;;;;5068903;28;20199;-69
2022/05/12 02:41:32;;;;;;;5.97;2.57;;;;;;;;;;5080512;28;20217;-67
2022/05/12 02:44:00;;;;;;;8.70;2.33;;;;;;;;;;5080190;28;20271;-70
2022/05/12 02:46:28;;;;;;;5.63;2.40;;;;;;;;;;5079965;28;20237;-70
2022/05/12 02:48:57;;;;;;;8.13;2.70;;;;;;;;;;5080221;28;20289;-69
2022/05/12 02:51:25;;;;;;;6.97;2.37;;;;;;;;;;5079719;28;20214;-70
2022/05/12 02:53:53;;;;;;;8.90;2.27;;;;;;;;;;5064804;28;20305;-68
2022/05/12 02:56:21;;;;;;;7.27;2.20;;;;;;;;;;5059858;28;20239;-69
2022/05/12 02:58:49;;;;;;;7.10;2.80;;;;;;;;;;5060135;28;20305;-69
2022/05/12 03:01:17;;;;;;;6.33;3.70;;;;;;;;;;5059621;28;20316;-68
2022/05/12 03:03:46;;;;;;;6.50;2.23;;;;;;;;;;5059817;28;20289;-69
2022/05/12 03:06:16;;;;;;;7.60;2.83;;;;;;;;;;5059451;28;20227;-69
2022/05/12 03:08:44;;;;;;;6.77;2.43;;;;;;;;;;5066444;28;20271;-69
2022/05/12 03:11:12;;;;;;;3.80;2.73;;;;;;;;;;5079542;28;20206;-68
2022/05/12 03:13:40;;;;;;;3.40;2.10;;;;;;;;;;5070918;28;20204;-71
2022/05/12 03:16:12;;;;;;;6.90;2.60;;;;;;;;;;5071485;28;20594;-68
2022/05/12 03:18:40;;;;;;;10.33;2.60;;;;;;;;;;5065631;28;20244;-68
2022/05/12 03:21:09;;;;;;;5.97;2.60;;;;;;;;;;5074327;28;20202;-68
2022/05/12 03:23:40;;;;;;;8.77;2.67;;;;;;;;;;5076507;28;20194;-68
2022/05/12 03:26:08;;;;;;;9.93;3.07;;;;;;;;;;5078638;28;20226;-68
2022/05/12 03:28:37;;;;;;;9.23;2.90;;;;;;;;;;5078264;28;20627;-68
2022/05/12 03:31:11;;;;;;;7.37;2.47;;;;;;;;;;5074066;28;20202;-68
2022/05/12 03:33:39;;;;;;;8.30;2.50;;;;;;;;;;5073515;28;20249;-68
2022/05/12 03:36:08;;;;;;;11.13;3.20;;;;;;;;;;5077777;28;20617;-68
2022/05/12 03:38:36;;;;;;;4.63;2.33;;;;;;;;;;5077424;28;20213;-68
2022/05/12 03:41:06;;;;;;;8.13;2.60;;;;;;;;;;5075569;28;20700;-68
2022/05/12 03:46:23;;;;;;;8.37;3.30;;;;;;;;;;5072779;28;20702;-68
2022/05/12 03:48:52;;;;;;;5.23;2.70;;;;;;;;;;5070106;28;20772;-68
2022/05/12 03:51:20;;;;;;;3.37;2.63;;;;;;;;;;5066251;28;20218;-68
2022/05/12 03:53:48;;;;;;;6.07;2.27;;;;;;;;;;5064578;28;20655;-68
2022/05/12 03:56:17;;;;;;;3.47;2.77;;;;;;;;;;5067784;28;20230;-67
2022/05/12 03:58:46;;;;;;;6.23;2.93;;;;;;;;;;5069092;28;20199;-68
2022/05/12 04:01:14;;;;;;;5.67;2.43;;;;;;;;;;5069641;28;20206;-68
2022/05/12 04:03:42;;;;;;;8.40;2.50;;;;;;;;;;5069955;28;20230;-67
2022/05/12 04:06:11;;;;;;;9.90;2.83;;;;;;;;;;5068619;28;20217;-67
2022/05/12 04:08:39;;;;;;;8.73;2.80;;;;;;;;;;5069250;28;20276;-67
2022/05/12 04:11:08;;;;;;;6.80;2.80;;;;;;;;;;5058295;28;20237;-68
2022/05/12 04:13:38;;;;;;;7.50;3.13;;;;;;;;;;5059614;28;20615;-67
2022/05/12 04:16:06;;;;;;;7.63;2.33;;;;;;;;;;5074546;28;20629;-68
2022/05/12 04:18:35;;;;;;;4.97;2.40;;;;;;;;;;5058207;28;20571;-67
2022/05/12 04:21:03;;;;;;;5.50;3.57;;;;;;;;;;5058155;28;20242;-68
2022/05/12 04:23:31;;;;;;;6.63;2.17;;;;;;;;;;5065070;28;20233;-68
2022/05/12 04:26:01;;;;;;;7.30;2.37;;;;;;;;;;5063856;28;20230;-68
2022/05/12 04:28:30;;;;;;;5.53;2.40;;;;;;;;;;5067654;28;20245;-68
2022/05/12 04:30:59;;;;;;;8.30;2.80;;;;;;;;;;5070782;28;20201;-68
2022/05/12 04:36:13;;;;;;;8.57;2.67;;;;;;;;;;5067911;28;20222;-68
2022/05/12 04:38:42;;;;;;;6.00;2.80;;;;;;;;;;5068290;28;20750;-68
2022/05/12 04:41:10;;;;;;;5.60;2.10;;;;;;;;;;5070967;28;20241;-65
2022/05/12 04:43:39;;;;;;;7.20;3.50;;;;;;;;;;5067494;28;20202;-64
2022/05/12 04:46:08;;;;;;;3.83;2.43;;;;;;;;;;5068957;28;20279;-65
2022/05/12 04:48:38;;;;;;;5.77;2.60;;;;;;;;;;5066903;28;20249;-64
2022/05/12 04:51:06;;;;;;;10.47;2.77;;;;;;;;;;5069052;28;20609;-64
2022/05/12 04:53:34;;;;;;;4.50;2.10;;;;;;;;;;5069192;28;20707;-64
2022/05/12 04:56:02;;;;;;;8.37;4.47;;;;;;;;;;5067541;28;20750;-64
2022/05/12 04:58:30;;;;;;;7.33;2.63;;;;;;;;;;5071043;28;20264;-65
2022/05/12 05:00:59;;;;;;;8.07;2.70;;;;;;;;;;5069691;28;20225;-64
2022/05/12 05:03:28;;;;;;;7.83;2.70;;;;;;;;;;5069571;28;20654;-65
2022/05/12 05:05:56;;;;;;;5.40;2.50;;;;;;;;;;5066369;28;20314;-65
2022/05/12 05:08:25;;;;;;;10.40;2.83;;;;;;;;;;5070278;28;20625;-65
2022/05/12 05:10:54;;;;;;;7.70;2.67;;;;;;;;;;5067318;28;20226;-65
2022/05/12 05:13:22;;;;;;;8.60;2.40;;;;;;;;;;5070215;28;20202;-65
2022/05/12 05:15:51;;;;;;;8.90;2.90;;;;;;;;;;5069509;28;20260;-65
2022/05/12 05:18:20;;;;;;;8.47;2.93;;;;;;;;;;5066311;28;20577;-63
2022/05/12 05:20:50;;;;;;;5.80;2.60;;;;;;;;;;5068041;28;20220;-63
2022/05/12 05:23:21;;;;;;;9.07;2.60;;;;;;;;;;5071946;28;20259;-63
2022/05/12 05:25:50;;;;;;;6.07;2.57;;;;;;;;;;5066512;28;20321;-65
2022/05/12 05:28:18;;;;;;;8.10;2.53;;;;;;;;;;5058125;28;20269;-65
2022/05/12 05:30:46;;;;;;;4.10;2.40;;;;;;;;;;5069104;28;20203;-65
2022/05/12 05:33:15;;;;;;;5.07;2.63;;;;;;;;;;5057201;28;20207;-65
2022/05/12 05:35:43;;;;;;;9.10;2.80;;;;;;;;;;5077077;28;20245;-64
2022/05/12 05:38:13;;;;;;;6.10;2.83;;;;;;;;;;5064892;28;20207;-65
2022/05/12 05:40:41;;;;;;;6.20;2.63;;;;;;;;;;5061034;28;20214;-65
2022/05/12 05:43:13;;;;;;;6.00;2.37;;;;;;;;;;5073460;28;20210;-64
2022/05/12 05:45:42;;;;;;;7.23;2.53;;;;;;;;;;5057413;28;20223;-65
2022/05/12 05:48:10;;;;;;;11.27;3.10;;;;;;;;;;5056978;28;20662;-65
2022/05/12 05:53:25;;;;;;;7.37;2.57;;;;;;;;;;5057064;28;20670;-65
2022/05/12 05:55:55;;;;;;;8.63;2.60;;;;;;;;;;5056697;28;20281;-64
2022/05/12 05:58:23;;;;;;;6.03;2.77;;;;;;;;;;5059375;28;20615;-64
2022/05/12 06:00:51;;;;;;;7.43;2.63;;;;;;;;;;5060694;28;20256;-64
2022/05/12 06:03:19;;;;;;;6.77;2.80;;;;;;;;;;5060377;28;20211;-64
2022/05/12 06:05:47;;;;;;;6.83;2.77;;;;;;;;;;5060810;28;20238;-64
2022/05/12 06:08:17;;;;;;;6.03;2.60;;;;;;;;;;5060107;28;20245;-64
2022/05/12 06:10:47;;;;;;;7.90;2.70;;;;;;;;;;5060809;28;20241;-64
2022/05/12 06:13:15;;;;;;;4.07;2.57;;;;;;;;;;5063437;28;20194;-64
2022/05/12 06:15:43;;;;;;;9.93;3.13;;;;;;;;;;5078548;28;20226;-64
2022/05/12 06:18:13;;;;;;;4.33;2.40;;;;;;;;;;5070081;28;20206;-64
2022/05/12 06:20:41;;;;;;;8.70;3.50;;;;;;;;;;5069037;28;20226;-63
2022/05/12 06:23:09;;;;;;;5.67;2.43;;;;;;;;;;5059706;28;20285;-64
2022/05/12 06:25:38;;;;;;;5.93;2.70;;;;;;;;;;5060140;28;20230;-64
2022/05/12 06:28:08;;;;;;;11.70;3.10;;;;;;;;;;5060083;28;20203;-64
2022/05/12 06:30:37;;;;;;;6.83;2.43;;;;;;;;;;5069102;28;20627;-63
2022/05/12 06:33:05;;;;;;;7.07;2.37;;;;;;;;;;5071418;28;20225;-63
2022/05/12 06:35:33;;;;;;;9.67;2.67;;;;;;;;;;5072092;28;20651;-63
2022/05/12 06:38:01;;;;;;;6.10;2.60;;;;;;;;;;5068756;28;20195;-64
2022/05/12 06:40:29;;;;;;;9.90;2.50;;;;;;;;;;5069089;28;20202;-64
2022/05/12 06:42:58;;;;;;;8.60;2.73;;;;;;;;;;5059784;28;20233;-64
2022/05/12 06:45:27;;;;;;;7.43;2.33;;;;;;;;;;5060019;28;20284;-63
2022/05/12 06:47:56;;;;;;;11.03;2.60;;;;;;;;;;5059671;28;20207;-64
2022/05/12 06:50:26;;;;;;;10.23;2.60;;;;;;;;;;5060119;28;20284;-64
2022/05/12 06:52:54;;;;;;;8.50;3.60;;;;;;;;;;5061055;28;20628;-64
2022/05/12 06:55:22;;;;;;;7.50;2.90;;;;;;;;;;5077101;28;20222;-64
2022/05/12 06:57:51;;;;;;;7.13;2.53;;;;;;;;;;5070067;28;20613;-63
2022/05/12 07:00:20;;;;;;;6.83;3.10;;;;;;;;;;5067422;28;20195;-64
2022/05/12 07:02:52;;;;;;;8.97;2.53;;;;;;;;;;5072319;28;20641;-64
2022/05/12 07:05:21;;;;;;;7.00;2.37;;;;;;;;;;5069853;28;20334;-64
2022/05/12 07:07:49;;;;;;;8.80;2.70;;;;;;;;;;5071252;28;20198;-64
2022/05/12 07:10:18;;;;;;;12.57;3.03;;;;;;;;;;5071770;28;20218;-63
2022/05/12 07:12:46;;;;;;;12.10;2.50;;;;;;;;;;5070273;28;20199;-62
2022/05/12 07:15:15;;;;;;;7.33;2.50;;;;;;;;;;5072701;28;20194;-62
2022/05/12 07:17:44;;;;;;;8.17;2.73;;;;;;;;;;5070280;28;20568;-62
2022/05/12 07:28:32;;;;;;;6.07;2.23;;;;;;;;;;5079147;28;20233;-67
2022/05/12 07:31:03;;;;;;;9.40;2.97;;;;;;;;;;5079023;28;20222;-67
2022/05/12 07:33:37;;;;;;;8.17;2.77;;;;;;;;;;5079203;28;20218;-68
2022/05/12 07:36:09;;;;;;;7.93;2.60;;;;;;;;;;5073835;28;20286;-68
2022/05/12 07:38:37;;;;;;;10.23;2.67;;;;;;;;;;5067335;28;20297;-68
2022/05/12 07:41:07;;;;;;;8.07;2.87;;;;;;;;;;5061450;28;20741;-67
2022/05/12 07:43:35;;;;;;;6.93;2.50;;;;;;;;;;5069606;28;20254;-67
2022/05/12 07:46:03;;;;;;;6.87;2.80;;;;;;;;;;5071484;28;20214;-65
2022/05/12 07:48:31;;;;;;;7.63;2.50;;;;;;;;;;5071682;28;20210;-66
2022/05/12 07:50:59;;;;;;;4.50;2.87;;;;;;;;;;5058526;28;20725;-67
2022/05/12 07:53:29;;;;;;;10.10;2.57;;;;;;;;;;5060966;28;20215;-67
2022/05/12 07:55:57;;;;;;;4.30;2.17;;;;;;;;;;5068911;28;20215;-67
2022/05/12 07:58:25;;;;;;;5.30;2.47;;;;;;;;;;5069604;28;20203;-69
2022/05/12 08:00:53;;;;;;;6.50;2.20;;;;;;;;;;5069888;28;20233;-68
2022/05/12 08:03:22;;;;;;;3.60;1.93;;;;;;;;;;5069505;28;20206;-66
2022/05/12 08:05:51;;;;;;;10.40;3.60;;;;;;;;;;5069707;28;20220;-70
2022/05/12 08:08:19;;;;;;;6.97;2.27;;;;;;;;;;5068420;28;20201;-68
2022/05/12 08:10:48;;;;;;;11.17;3.23;;;;;;;;;;5069189;28;20250;-69
2022/05/12 08:13:17;;;;;;;11.80;3.03;;;;;;;;;;5072200;28;20198;-72
2022/05/12 08:15:47;;;;;;;7.07;2.50;;;;;;;;;;5068878;28;20218;-72
2022/05/12 08:18:19;;;;;;;7.80;2.60;;;;;;;;;;5070671;28;20662;-71
2022/05/12 08:20:48;;;;;;;4.67;2.23;;;;;;;;;;5068084;28;20210;-70
2022/05/12 08:23:16;;;;;;;10.57;2.70;;;;;;;;;;5072043;28;20231;-72
2022/05/12 08:25:45;;;;;;;8.90;3.00;;;;;;;;;;5067944;28;20261;-73
2022/05/12 08:28:15;;;;;;;8.03;2.73;;;;;;;;;;5064744;28;20231;-76
2022/05/12 08:30:44;;;;;;;9.00;2.73;;;;;;;;;;5070706;28;20268;-77
2022/05/12 08:33:12;;;;;;;14.73;3.10;;;;;;;;;;5065445;28;20668;-76
2022/05/12 08:35:42;;;;;;;5.20;2.50;;;;;;;;;;5067914;28;20232;-76
2022/05/12 08:38:10;;;;;;;13.57;3.47;;;;;;;;;;5066064;28;20214;-75
2022/05/12 08:40:45;;;;;;;5.77;2.40;;;;;;;;;;5069017;28;20245;-76
2022/05/12 08:43:15;;;;;;;6.03;2.30;;;;;;;;;;5068945;28;20209;-76
2022/05/12 08:45:45;;;;;;;4.70;2.67;;;;;;;;;;5066179;28;20238;-75
2022/05/12 08:48:14;;;;;;;6.33;2.90;;;;;;;;;;5067879;28;20238;-75
2022/05/12 08:50:42;;;;;;;8.13;3.17;;;;;;;;;;5068723;28;20254;-75
2022/05/12 08:53:12;;;;;;;11.00;2.73;;;;;;;;;;5067665;28;20556;-76
2022/05/12 08:55:44;;;;;;;8.67;2.53;;;;;;;;;;5070418;28;20276;-74
2022/05/12 08:58:16;;;;;;;7.87;3.50;;;;;;;;;;5068022;28;20202;-76
2022/05/12 09:00:49;;;;;;;5.07;2.50;;;;;;;;;;5069289;28;20252;-77
2022/05/12 09:03:22;;;;;;;8.67;2.23;;;;;;;;;;5067742;28;20242;-77
2022/05/12 09:05:55;;;;;;;6.10;2.50;;;;;;;;;;5063508;28;20699;-77
2022/05/12 09:08:28;;;;;;;15.93;2.70;;;;;;;;;;5066811;28;20616;-77
2022/05/12 09:11:00;;;;;;;7.00;3.07;;;;;;;;;;5068279;28;20244;-76
2022/05/12 09:13:31;;;;;;;13.37;3.20;;;;;;;;;;5066269;28;20691;-77
2022/05/12 09:16:07;;;;;;;9.10;2.37;;;;;;;;;;5064653;28;20336;-77
2022/05/12 09:18:37;;;;;;;7.20;2.47;;;;;;;;;;5066399;28;20250;-76
2022/05/12 09:21:07;;;;;;;8.07;2.83;;;;;;;;;;5064158;28;20195;-76
2022/05/12 09:23:35;;;;;;;4.67;2.60;;;;;;;;;;5061412;28;20211;-76
2022/05/12 09:26:18;;;;;;;6.90;2.53;;;;;;;;;;5064936;28;20244;-78
2022/05/12 09:28:46;;;;;;;6.40;2.60;;;;;;;;;;5067212;28;20205;-79
2022/05/12 09:31:19;;;;;;;8.70;2.97;;;;;;;;;;5062680;28;20220;-78
2022/05/12 09:33:49;;;;;;;7.33;2.50;;;;;;;;;;5063636;28;20202;-77
2022/05/12 09:36:26;;;;;;;7.20;2.47;;;;;;;;;;5078938;28;20227;-77
2022/05/12 09:38:56;;;;;;;6.23;2.57;;;;;;;;;;5064532;28;20203;-78
2022/05/12 09:41:31;;;;;;;16.13;4.63;;;;;;;;;;5063731;28;20679;-75
2022/05/12 09:44:10;;;;;;;14.07;3.63;;;;;;;;;;5063887;28;20207;-77
2022/05/12 09:46:40;;;;;;;6.60;2.70;;;;;;;;;;5063519;28;20226;-75
2022/05/12 09:49:18;;;;;;;6.97;2.97;;;;;;;;;;5063712;28;20215;-77
2022/05/12 09:51:47;;;;;;;12.23;3.37;;;;;;;;;;5063955;28;20223;-74
2022/05/12 09:54:23;;;;;;;7.20;2.93;;;;;;;;;;5076697;28;20204;-74
2022/05/12 09:57:03;;;;;;;4.67;2.67;;;;;;;;;;5074378;28;20238;-74
2022/05/12 09:59:33;;;;;;;7.87;3.13;;;;;;;;;;5072860;28;20249;-78
2022/05/12 10:02:06;;;;;;;13.43;2.63;;;;;;;;;;5070966;28;20200;-77
2022/05/12 10:10:13;;;;;;;8.67;2.60;;;;;;;;;;5064000;28;20224;-77
2022/05/12 10:12:49;;;;;;;9.73;3.63;;;;;;;;;;5064558;28;20237;-76
2022/05/12 10:15:20;;;;;;;17.73;4.43;;;;;;;;;;5083575;28;20231;-76
2022/05/12 10:17:50;;;;;;;51.80;13.73;;;;;;;;;;5065945;28;20213;-77
2022/05/12 10:20:20;;;;;;;12.40;3.47;;;;;;;;;;5080974;28;20240;-77
2022/05/12 10:22:53;;;;;;;8.43;3.03;;;;;;;;;;5083178;28;20254;-77
2022/05/12 10:25:25;;;;;;;9.20;2.80;;;;;;;;;;5069326;28;20569;-76
2022/05/12 10:27:55;;;;;;;5.63;2.53;;;;;;;;;;5083529;28;20249;-77
2022/05/12 10:30:30;;;;;;;14.47;2.97;;;;;;;;;;5083624;28;20270;-77
2022/05/12 10:33:06;;;;;;;9.00;2.60;;;;;;;;;;5079155;28;20274;-69
2022/05/12 10:35:37;;;;;;;5.47;2.53;;;;;;;;;;5077063;28;20255;-69
2022/05/12 10:38:07;;;;;;;9.73;2.77;;;;;;;;;;5076454;28;20231;-68
2022/05/12 10:40:39;;;;;;;5.33;2.70;;;;;;;;;;5073793;28;20247;-65
2022/05/12 10:43:17;;;;;;;3.33;2.73;;;;;;;;;;5071196;28;20197;-68
2022/05/12 10:45:50;;;;;;;6.67;3.80;;;;;;;;;;5070416;28;20226;-67
2022/05/12 10:48:29;;;;;;;5.03;2.67;;;;;;;;;;5070243;28;20202;-67
2022/05/12 10:50:59;;;;;;;5.70;3.03;;;;;;;;;;5069839;28;20203;-67
2022/05/12 10:53:51;;;;;;;8.73;3.77;;;;;;;;;;5070196;28;20202;-68
2022/05/12 10:56:25;;;;;;;5.20;2.57;;;;;;;;;;5051491;28;20660;-68
2022/05/12 10:58:57;;;;;;;7.73;2.87;;;;;;;;;;5067177;28;20202;-68
2022/05/12 11:01:28;;;;;;;8.67;3.40;;;;;;;;;;5070223;28;20561;-68
2022/05/12 11:04:00;;;;;;;7.50;2.40;;;;;;;;;;5071181;28;20265;-67
2022/05/12 11:06:30;;;;;;;6.23;2.53;;;;;;;;;;5070004;28;20347;-67
2022/05/12 11:09:01;;;;;;;6.63;2.43;;;;;;;;;;5070049;28;20704;-67
2022/05/12 11:11:33;;;;;;;7.97;2.70;;;;;;;;;;5067547;28;20221;-67
2022/05/12 11:14:03;;;;;;;5.67;2.80;;;;;;;;;;5072041;28;20205;-67
2022/05/12 11:16:34;;;;;;;7.17;2.73;;;;;;;;;;5072698;28;20280;-68
2022/05/12 11:19:08;;;;;;;6.57;2.93;;;;;;;;;;5068436;28;20226;-70
2022/05/12 11:21:39;;;;;;;8.03;2.43;;;;;;;;;;5058953;28;20215;-71
2022/05/12 11:24:17;;;;;;;10.87;3.17;;;;;;;;;;5068416;28;20195;-69
2022/05/12 11:27:04;;;;;;;5.27;2.57;;;;;;;;;;5068788;28;20218;-70
2022/05/12 11:29:48;;;;;;;9.03;2.63;;;;;;;;;;5071717;28;20641;-71
2022/05/12 11:32:22;;;;;;;9.13;3.33;;;;;;;;;;5071168;28;20218;-70
2022/05/12 11:34:54;;;;;;;7.50;2.53;;;;;;;;;;5072788;28;20217;-76
2022/05/12 11:37:33;;;;;;;5.03;2.30;;;;;;;;;;5067388;28;20223;-74
2022/05/12 11:40:03;;;;;;;4.90;2.93;;;;;;;;;;5066470;28;20202;-74
2022/05/12 11:44:23;;;;;;;6.87;2.90;;;;;;;;;;5071109;28;20197;-74
2022/05/12 11:45:34;;;;;;;6.50;2.60;;;;;;;;;;5070958;28;20198;-73
2022/05/12 11:48:16;;;;;;;8.27;2.70;;;;;;;;;;5067719;28;20194;-74
2022/05/12 11:51:04;;;;;;;7.63;2.53;;;;;;;;;;5071895;28;20202;-76
2022/05/12 11:53:34;;;;;;;10.77;2.93;;;;;;;;;;5072706;28;20230;-74
2022/05/12 11:56:05;;;;;;;9.70;3.10;;;;;;;;;;5078086;28;20229;-75
2022/05/12 11:58:37;;;;;;;5.60;2.50;;;;;;;;;;5078721;28;20206;-74
2022/05/12 12:01:06;;;;;;;6.63;2.60;;;;;;;;;;5075708;28;20236;-75
2022/05/12 12:03:51;;;;;;;6.50;2.57;;;;;;;;;;5062741;28;20781;-74
2022/05/12 12:06:38;;;;;;;8.03;3.13;;;;;;;;;;5070516;28;20240;-74
2022/05/12 12:09:33;;;;;;;8.43;2.30;;;;;;;;;;5066564;28;20656;-74
2022/05/12 12:12:02;;;;;;;8.33;2.73;;;;;;;;;;5042260;28;20233;-75
2022/05/12 12:14:49;;;;;;;6.60;3.27;;;;;;;;;;5078296;28;20241;-74
2022/05/12 12:17:30;;;;;;;5.77;2.80;;;;;;;;;;5075297;28;20231;-75
2022/05/12 12:19:59;;;;;;;8.47;2.80;;;;;;;;;;5070598;28;20248;-75
2022/05/12 12:22:41;;;;;;;5.47;2.43;;;;;;;;;;5077750;28;20211;-76
2022/05/12 12:25:29;;;;;;;10.10;3.03;;;;;;;;;;5078007;28;20206;-75
2022/05/12 12:28:11;;;;;;;3.63;2.80;;;;;;;;;;5077877;28;20620;-76
2022/05/12 12:31:04;;;;;;;8.57;2.43;;;;;;;;;;5077906;28;20203;-70
2022/05/12 12:33:37;;;;;;;8.40;2.93;;;;;;;;;;5077318;28;20274;-69
2022/05/12 12:36:06;;;;;;;9.57;3.17;;;;;;;;;;5067263;28;20218;-69
2022/05/12 12:39:01;;;;;;;8.83;2.67;;;;;;;;;;5063087;28;20208;-69
2022/05/12 12:41:44;;;;;;;6.83;2.80;;;;;;;;;;5057635;28;20622;-69
2022/05/12 12:44:20;;;;;;;5.93;2.70;;;;;;;;;;5065501;28;20210;-69
2022/05/12 12:47:00;;;;;;;6.03;3.10;;;;;;;;;;5077569;28;20623;-69
2022/05/12 12:49:30;;;;;;;9.60;3.43;;;;;;;;;;5066280;28;20266;-69
2022/05/12 12:51:59;;;;;;;7.60;3.27;;;;;;;;;;5068872;28;20208;-68
2022/05/12 12:57:25;;;;;;;6.53;2.87;;;;;;;;;;5055361;28;20229;-68
2022/05/12 12:59:55;;;;;;;9.20;3.43;;;;;;;;;;5055688;28;20205;-68
2022/05/12 13:02:30;;;;;;;5.13;2.33;;;;;;;;;;5055571;28;20250;-68
2022/05/12 13:04:59;;;;;;;7.40;2.87;;;;;;;;;;5067441;28;20236;-68
2022/05/12 13:07:28;;;;;;;5.47;3.07;;;;;;;;;;5073717;28;20223;-69
2022/05/12 13:09:56;;;;;;;8.70;2.87;;;;;;;;;;5070294;28;20200;-69
2022/05/12 13:12:27;;;;;;;5.27;2.70;;;;;;;;;;5057117;28;20734;-71
2022/05/12 13:15:00;;;;;;;5.33;2.53;;;;;;;;;;5057608;28;20574;-68
2022/05/12 13:17:28;;;;;;;30.87;18.40;;;;;;;;;;5057134;28;20671;-67
2022/05/12 13:19:57;;;;;;;9.77;4.47;;;;;;;;;;5057185;28;20208;-67
2022/05/12 13:22:27;;;;;;;7.20;3.00;;;;;;;;;;5069611;28;20727;-67
2022/05/12 13:24:56;;;;;;;7.60;3.17;;;;;;;;;;5075516;28;20263;-68
2022/05/12 13:27:25;;;;;;;6.73;2.80;;;;;;;;;;5072918;28;20232;-68
2022/05/12 13:29:54;;;;;;;5.03;2.63;;;;;;;;;;5062916;28;20200;-70
2022/05/12 13:32:34;;;;;;;6.87;3.20;;;;;;;;;;5072269;28;20258;-74
2022/05/12 13:35:05;;;;;;;8.57;2.60;;;;;;;;;;5074591;28;20616;-74
2022/05/12 13:37:34;;;;;;;10.63;5.03;;;;;;;;;;5063961;28;20268;-74
2022/05/12 13:40:03;;;;;;;5.07;2.50;;;;;;;;;;5072592;28;20257;-73
2022/05/12 13:42:35;;;;;;;7.03;3.53;;;;;;;;;;5076971;28;20203;-73
2022/05/12 13:45:07;;;;;;;7.67;3.40;;;;;;;;;;5077130;28;20669;-78
2022/05/12 13:47:37;;;;;;;6.93;2.77;;;;;;;;;;5076017;28;20221;-73
2022/05/12 13:50:09;;;;;;;5.80;2.87;;;;;;;;;;5070502;28;20233;-74
2022/05/12 13:52:42;;;;;;;6.97;2.83;;;;;;;;;;5063870;28;20202;-75
2022/05/12 13:55:22;;;;;;;5.53;2.20;;;;;;;;;;5077006;28;20207;-74
2022/05/12 13:57:51;;;;;;;8.60;2.90;;;;;;;;;;5076837;28;20720;-73
2022/05/12 14:00:25;;;;;;;7.07;2.67;;;;;;;;;;5076817;28;20615;-75
2022/05/12 14:02:55;;;;;;;11.50;2.80;;;;;;;;;;5077109;28;20212;-74
2022/05/12 14:05:26;;;;;;;6.93;3.00;;;;;;;;;;5076307;28;20657;-73
2022/05/12 14:08:08;;;;;;;9.90;3.07;;;;;;;;;;5075084;28;20265;-73
2022/05/12 14:10:37;;;;;;;9.80;3.07;;;;;;;;;;5075341;28;20203;-73
2022/05/12 14:21:25;;;;;;;5.03;2.97;;;;;;;;;;5060387;28;20230;-76
2022/05/12 14:23:53;;;;;;;11.80;3.37;;;;;;;;;;5068900;28;20201;-73
2022/05/12 14:26:22;;;;;;;6.93;2.93;;;;;;;;;;5073262;28;20569;-76
2022/05/12 14:28:50;;;;;;;5.43;2.97;;;;;;;;;;5060424;28;20265;-74
2022/05/12 14:31:21;;;;;;;5.80;3.00;;;;;;;;;;5060148;28;20214;-75
2022/05/12 14:33:50;;;;;;;6.43;2.50;;;;;;;;;;5059956;28;20639;-74
2022/05/12 14:36:18;;;;;;;5.30;2.57;;;;;;;;;;5075403;28;20279;-75
2022/05/12 14:38:47;;;;;;;6.57;3.17;;;;;;;;;;5069941;28;20205;-74
2022/05/12 14:41:15;;;;;;;8.03;3.53;;;;;;;;;;5060176;28;20209;-73
2022/05/12 14:43:43;;;;;;;4.10;2.90;;;;;;;;;;5060071;28;20210;-74
2022/05/12 14:46:12;;;;;;;7.10;3.20;;;;;;;;;;5060050;28;20230;-73
2022/05/12 14:48:43;;;;;;;6.13;3.17;;;;;;;;;;5059888;28;20202;-74
2022/05/12 14:51:12;;;;;;;9.70;2.90;;;;;;;;;;5063492;28;20205;-75
2022/05/12 14:53:40;;;;;;;8.50;2.37;;;;;;;;;;5059602;28;20237;-74
2022/05/12 14:56:08;;;;;;;6.83;3.33;;;;;;;;;;5078816;28;20224;-74
2022/05/12 14:58:37;;;;;;;4.90;2.70;;;;;;;;;;5079777;28;20695;-74
2022/05/12 15:01:05;;;;;;;8.63;3.03;;;;;;;;;;5079829;28;20254;-75
2022/05/12 15:03:35;;;;;;;8.63;3.40;;;;;;;;;;5079258;28;20282;-74
2022/05/12 15:06:05;;;;;;;6.60;2.80;;;;;;;;;;5079361;28;20257;-74
2022/05/12 15:08:34;;;;;;;7.23;3.13;;;;;;;;;;5074721;28;20255;-75
2022/05/12 15:11:02;;;;;;;5.17;2.73;;;;;;;;;;5073714;28;20236;-75
2022/05/12 15:13:30;;;;;;;6.87;2.83;;;;;;;;;;5079039;28;20236;-74
2022/05/12 15:15:59;;;;;;;7.90;3.10;;;;;;;;;;5070564;28;20638;-74
2022/05/12 15:18:27;;;;;;;7.77;2.87;;;;;;;;;;5059262;28;20205;-75
2022/05/12 15:20:55;;;;;;;7.03;3.50;;;;;;;;;;5059083;28;20243;-74
2022/05/12 15:23:25;;;;;;;9.33;3.53;;;;;;;;;;5059706;28;20252;-74
2022/05/12 15:25:56;;;;;;;16.60;4.57;;;;;;;;;;5059443;28;20683;-75
2022/05/12 15:28:26;;;;;;;10.33;3.97;;;;;;;;;;5059426;28;20757;-75
2022/05/12 15:30:55;;;;;;;7.97;3.43;;;;;;;;;;5058124;28;20216;-75
2022/05/12 15:33:24;;;;;;;9.77;3.13;;;;;;;;;;5059562;28;20245;-75